Main page
METAR-TAF:

METAR-TAF

Airports :

St. Gallen, Switzerland

St. Gallen–Altenrhein Airport

latitude: 47-29-06N, longitude: 009-33-43E, elevation: 398 m

Current weather observation

The report was made 38 minutes ago, at 00:50 UTC
Wind 7 kt from the East/Southeast
Temperature 15°C
Humidity 82%
Pressure 1023 hPa
Visibility 10 km or more
Overcast at a height of 4300 ft
Overcast at a height of 5000 ft

METAR: LSZR 250050Z AUTO 11007KT 9999 OVC043 OVC050 15/12 Q1023

Time: 03:28 (01:28 UTC)

Forecast

The report was made 11 hours and 3 minutes ago, at 14:25 UTC
Forecast valid from 24 at 15 UTC to 24 at 24 UTC
Wind 6 kt from the Northwest
Visibility 10 km or more
Few clouds at a height of 5000 ft
Becoming
from 24 at 15 UTC to 24 at 18 UTC
Broken clouds at a height of 6000 ft
Probability 30% :
Temporary
from 24 at 16 UTC to 24 at 24 UTC
light rain showers

TAF: LSZR 241425Z 2415/2424 32006KT 9999 FEW050 BECMG 2415/2418 BKN060 PROB30 TEMPO 2416/2424 -SHRA

Weather observations and forecasts of more than 4000 airports (METAR and TAF reports).

The available stations are represented by yellow and red dots on the map.

Hover mouse over dot to see the name of the station.

Then click to see weather observations and forecasts.

To change the map : click on the green buttons with a black cross to zoom in, on the green button with a dash to zoom out, or on the green arrows for adjacent maps.


METAR-TAF: